createdAt,value
2023-04-26T00:01:51.483Z,8.70
2023-04-26T00:06:54.898Z,13.30
2023-04-26T00:11:58.006Z,11.40
2023-04-26T00:17:02.953Z,14.10
2023-04-26T00:22:06.644Z,13.20
2023-04-26T00:27:10.864Z,10.60
2023-04-26T00:32:13.970Z,14.20
2023-04-26T00:37:17.138Z,13.60
2023-04-26T00:42:20.143Z,14.50
2023-04-26T00:47:29.742Z,14.40
2023-04-26T00:52:32.818Z,11.80
2023-04-26T00:57:35.928Z,12.10
2023-04-26T01:02:39.179Z,13.90
2023-04-26T01:07:42.447Z,14.80
2023-04-26T01:12:46.062Z,16.80
2023-04-26T01:17:49.935Z,12.90
2023-04-26T01:22:52.898Z,15.70
2023-04-26T01:27:55.826Z,14.10
2023-04-26T01:32:58.832Z,13.70
2023-04-26T01:38:02.022Z,12.50
2023-04-26T01:43:05.023Z,17.90
2023-04-26T01:48:09.115Z,13.00
2023-04-26T01:53:12.466Z,16.00
2023-04-26T01:58:15.577Z,29.50
2023-04-26T02:03:18.592Z,30.60
2023-04-26T02:08:21.591Z,39.30
2023-04-26T02:13:24.901Z,29.10
2023-04-26T02:18:27.809Z,19.00
2023-04-26T02:23:30.713Z,16.40
2023-04-26T02:28:33.620Z,12.40
2023-04-26T02:33:36.830Z,11.70
2023-04-26T02:38:39.846Z,19.90
2023-04-26T02:43:42.745Z,14.70
2023-04-26T02:48:45.757Z,15.10
2023-04-26T02:53:48.758Z,12.70
2023-04-26T02:58:52.711Z,9.50
2023-04-26T03:03:56.364Z,11.70
2023-04-26T03:08:59.510Z,11.80
2023-04-26T03:14:02.523Z,17.40
2023-04-26T03:19:05.732Z,10.90
2023-04-26T03:24:08.838Z,12.40
2023-04-26T03:29:12.977Z,11.50
2023-04-26T03:34:15.992Z,13.20
2023-04-26T03:39:19.299Z,11.80
2023-04-26T03:44:22.304Z,11.60
2023-04-26T03:49:25.411Z,10.10
2023-04-26T03:54:28.318Z,19.70
2023-04-26T03:59:34.703Z,17.30
2023-04-26T04:04:37.943Z,9.70
2023-04-26T04:09:41.017Z,11.70
2023-04-26T04:14:43.927Z,12.80
2023-04-26T04:19:46.825Z,11.00
2023-04-26T04:24:49.837Z,9.10
2023-04-26T04:29:56.257Z,11.80
2023-04-26T04:34:59.840Z,12.60
2023-04-26T04:40:03.057Z,9.30
2023-04-26T04:45:07.030Z,8.80
2023-04-26T04:50:10.297Z,16.30
2023-04-26T04:55:13.448Z,14.40
2023-04-26T05:00:17.382Z,11.50
2023-04-26T05:05:20.902Z,12.10
2023-04-26T05:10:23.859Z,10.80
2023-04-26T05:15:27.232Z,8.80
2023-04-26T05:20:31.222Z,8.40
2023-04-26T05:25:37.589Z,10.60
2023-04-26T05:30:40.994Z,12.10
2023-04-26T05:35:44.013Z,6.80
2023-04-26T05:40:48.455Z,8.40
2023-04-26T05:45:56.638Z,7.20
2023-04-26T05:50:59.625Z,8.10
2023-04-26T05:56:02.694Z,9.90
2023-04-26T06:01:06.416Z,9.40
2023-04-26T06:06:09.829Z,10.30
2023-04-26T06:11:12.846Z,10.80
2023-04-26T06:16:16.290Z,8.20
2023-04-26T06:21:20.079Z,9.90
2023-04-26T06:26:23.097Z,9.90
2023-04-26T06:31:26.430Z,10.10
2023-04-26T06:36:29.716Z,6.40
2023-04-26T06:41:32.831Z,8.90
2023-04-26T06:46:35.959Z,9.00
2023-04-26T06:51:39.247Z,9.20
2023-04-26T06:56:42.153Z,11.30
2023-04-26T07:01:45.307Z,9.20
2023-04-26T07:06:49.117Z,10.90
2023-04-26T07:11:52.313Z,8.60
2023-04-26T07:16:55.308Z,10.10
2023-04-26T07:21:58.525Z,8.90
2023-04-26T07:27:02.240Z,11.50
2023-04-26T07:32:05.759Z,12.90
2023-04-26T07:37:09.381Z,10.00
2023-04-26T07:42:12.692Z,11.60
2023-04-26T07:47:16.119Z,12.70
2023-04-26T07:52:19.321Z,13.20
2023-04-26T07:57:22.427Z,10.60
2023-04-26T08:02:33.231Z,14.30
2023-04-26T08:07:46.872Z,11.20
2023-04-26T08:12:50.390Z,11.70
2023-04-26T08:17:53.625Z,12.20
2023-04-26T08:22:57.447Z,11.70
2023-04-26T08:28:01.001Z,12.70
2023-04-26T08:33:04.086Z,9.70
2023-04-26T08:38:07.475Z,10.50
2023-04-26T08:43:11.294Z,11.80
2023-04-26T08:48:16.404Z,8.50
2023-04-26T08:53:20.076Z,7.50
2023-04-26T08:58:23.898Z,10.70
2023-04-26T09:03:27.597Z,12.70
2023-04-26T09:08:30.940Z,8.80
2023-04-26T09:13:34.157Z,9.80
2023-04-26T09:18:49.993Z,9.40
2023-04-26T09:24:01.900Z,12.20
2023-04-26T09:29:19.163Z,5.90
2023-04-26T09:34:22.537Z,13.10
2023-04-26T09:39:32.905Z,9.70
2023-04-26T09:49:50.978Z,7.80
2023-04-26T09:54:55.133Z,10.70
2023-04-26T09:59:58.357Z,11.60
2023-04-26T10:05:03.138Z,14.00
2023-04-26T10:10:07.977Z,11.00
2023-04-26T10:15:12.196Z,11.80
2023-04-26T10:20:18.466Z,11.10
2023-04-26T10:25:21.876Z,10.60
2023-04-26T10:30:25.102Z,13.60
2023-04-26T10:35:30.506Z,9.30
2023-04-26T10:40:40.442Z,7.70
2023-04-26T10:45:45.904Z,7.50
2023-04-26T10:51:13.470Z,10.30
2023-04-26T10:56:25.890Z,9.70
2023-04-26T11:01:30.845Z,9.10
2023-04-26T11:06:58.065Z,11.60
2023-04-26T11:12:01.141Z,8.40
2023-04-26T11:17:08.395Z,9.20
2023-04-26T11:22:11.549Z,8.40
2023-04-26T11:27:14.759Z,7.80
2023-04-26T11:32:20.326Z,6.00
2023-04-26T11:37:23.431Z,5.70
2023-04-26T11:42:26.952Z,5.90
2023-04-26T11:47:31.597Z,7.90
2023-04-26T11:52:34.705Z,5.00
2023-04-26T11:57:37.914Z,4.60
2023-04-26T12:02:48.282Z,7.30
2023-04-26T12:07:57.038Z,8.20
2023-04-26T12:13:00.476Z,8.30
2023-04-26T12:18:11.806Z,7.40
2023-04-26T12:23:17.456Z,5.40
2023-04-26T12:28:20.977Z,5.40
2023-04-26T12:33:25.692Z,6.30
2023-04-26T12:38:28.899Z,8.90
2023-04-26T12:43:32.528Z,11.10
2023-04-26T12:48:36.403Z,7.50
2023-04-26T12:53:39.462Z,9.30
2023-04-26T12:58:42.773Z,6.00
2023-04-26T13:03:46.685Z,9.20
2023-04-26T13:08:50.017Z,6.80
2023-04-26T13:13:53.090Z,6.00
2023-04-26T13:18:56.571Z,6.40
2023-04-26T13:23:59.751Z,6.00
2023-04-26T13:29:04.520Z,12.60
2023-04-26T13:34:07.824Z,12.00
2023-04-26T13:39:11.122Z,8.20
2023-04-26T13:44:15.865Z,7.60
2023-04-26T13:49:18.979Z,9.00
2023-04-26T13:54:22.803Z,9.60
2023-04-26T13:59:27.282Z,6.60
2023-04-26T14:04:31.156Z,6.80
2023-04-26T14:09:34.690Z,7.70
2023-04-26T14:14:38.006Z,7.20
2023-04-26T14:19:42.608Z,8.40
2023-04-26T14:24:46.374Z,8.40
2023-04-26T14:29:49.807Z,7.50
2023-04-26T14:34:53.012Z,7.00
2023-04-26T14:39:56.416Z,7.00
2023-04-26T14:45:00.353Z,9.90
2023-04-26T14:50:04.728Z,4.60
2023-04-26T14:55:08.864Z,5.30
2023-04-26T15:00:15.636Z,12.20
2023-04-26T15:05:18.936Z,17.00
2023-04-26T15:10:22.134Z,6.20
2023-04-26T15:15:25.247Z,7.50
2023-04-26T15:20:28.597Z,15.60
2023-04-26T15:25:35.191Z,8.90
2023-04-26T15:30:38.252Z,5.80
2023-04-26T15:35:41.770Z,5.40
2023-04-26T15:40:45.291Z,7.70
2023-04-26T15:45:50.066Z,5.90
2023-04-26T15:50:57.172Z,7.50
2023-04-26T15:56:00.480Z,6.10
2023-04-26T16:01:03.807Z,4.70
2023-04-26T16:06:08.828Z,8.00
2023-04-26T16:11:11.937Z,4.70
2023-04-26T16:16:15.179Z,7.60
2023-04-26T16:21:18.252Z,9.40
2023-04-26T16:26:22.389Z,19.90
2023-04-26T16:31:26.709Z,5.20
2023-04-26T16:36:30.148Z,3.60
2023-04-26T16:41:33.574Z,7.40
2023-04-26T16:46:37.198Z,8.50
2023-04-26T16:51:41.115Z,5.30
2023-04-26T16:56:44.221Z,7.20
2023-04-26T17:01:50.845Z,6.70
2023-04-26T17:06:55.041Z,6.80
2023-04-26T17:11:58.365Z,13.10
2023-04-26T17:17:01.460Z,6.20
2023-04-26T17:22:06.418Z,6.70
2023-04-26T17:27:09.538Z,19.30
2023-04-26T17:32:12.777Z,9.70
2023-04-26T17:37:15.847Z,5.50
2023-04-26T17:42:19.062Z,2.70
2023-04-26T17:47:22.481Z,5.00
2023-04-26T17:52:25.690Z,2.70
2023-04-26T17:57:28.791Z,5.00
2023-04-26T18:02:32.134Z,5.20
2023-04-26T18:07:35.729Z,5.40
2023-04-26T18:12:38.931Z,5.90
2023-04-26T18:17:42.118Z,4.90
2023-04-26T18:22:45.253Z,9.10
2023-04-26T18:27:49.103Z,4.40
2023-04-26T18:32:53.374Z,3.20
2023-04-26T18:37:57.352Z,7.10
2023-04-26T18:43:00.675Z,6.90
2023-04-26T18:48:04.204Z,5.90
2023-04-26T18:53:07.391Z,5.00
2023-04-26T18:58:10.952Z,6.50
2023-04-26T19:03:14.174Z,4.90
2023-04-26T19:08:17.825Z,4.70
2023-04-26T19:13:21.115Z,7.80
2023-04-26T19:18:24.385Z,4.80
2023-04-26T19:23:27.593Z,6.80
2023-04-26T19:28:31.275Z,8.00
2023-04-26T19:33:34.318Z,6.40
2023-04-26T19:38:37.524Z,7.80
2023-04-26T19:43:40.746Z,6.10
2023-04-26T19:48:43.951Z,6.70
2023-04-26T19:53:47.165Z,11.20
2023-04-26T19:58:50.377Z,9.30
2023-04-26T20:03:53.772Z,9.20
2023-04-26T20:08:57.015Z,4.40
2023-04-26T20:14:00.416Z,9.70
2023-04-26T20:19:03.726Z,4.70
2023-04-26T20:24:07.309Z,10.30
2023-04-26T20:29:10.355Z,7.10
2023-04-26T20:34:13.362Z,8.60
2023-04-26T20:39:16.770Z,9.80
2023-04-26T20:44:19.877Z,7.40
2023-04-26T20:49:23.269Z,6.80
2023-04-26T20:54:26.409Z,11.20
2023-04-26T20:59:29.518Z,7.10
2023-04-26T21:04:32.886Z,6.60
2023-04-26T21:09:36.150Z,12.90
2023-04-26T21:14:39.253Z,4.90
2023-04-26T21:19:42.853Z,8.50
2023-04-26T21:24:45.984Z,7.30
2023-04-26T21:29:48.989Z,8.20
2023-04-26T21:34:52.097Z,9.30
2023-04-26T21:39:55.108Z,11.10
2023-04-26T21:44:58.113Z,6.90
2023-04-26T21:50:01.336Z,6.00
2023-04-26T21:55:04.917Z,4.20
2023-04-26T22:00:11.814Z,12.90
2023-04-26T22:05:14.745Z,9.20
2023-04-26T22:10:18.242Z,11.40
2023-04-26T22:15:21.583Z,10.20
2023-04-26T22:20:24.728Z,9.90
2023-04-26T22:25:27.692Z,9.30
2023-04-26T22:30:30.635Z,8.90
2023-04-26T22:35:33.618Z,5.80
2023-04-26T22:40:36.817Z,5.20
2023-04-26T22:45:39.838Z,8.10
2023-04-26T22:50:43.147Z,5.20
2023-04-26T22:55:46.450Z,4.40
2023-04-26T23:00:49.473Z,6.50
2023-04-26T23:05:52.571Z,5.50
2023-04-26T23:10:55.474Z,5.30
2023-04-26T23:15:58.480Z,5.80
2023-04-26T23:21:01.698Z,12.70
2023-04-26T23:26:08.241Z,5.80
2023-04-26T23:31:11.546Z,7.90
2023-04-26T23:36:14.600Z,8.80
2023-04-26T23:41:17.502Z,7.90
2023-04-26T23:46:20.548Z,7.60
2023-04-26T23:51:23.621Z,9.70
2023-04-26T23:56:26.623Z,8.60
